sim
Sign-in with your pilot id or email,
or register
Callsign
Passwort

Schedule Details

Flight Number: DLH2414
Departure: Munich Airport (EDDM) at 08:20
Arrival: Stockholm Arlanda Airport (ESSA) at 10:35
Route: Lufthansa Passenger Schedule. Enter filed route here before submitting Pirep.

Weather Information
Getting current METAR information for EDDM 010120Z 07001KT 1200 0500NE R08L/0500D R08R/1100D BCFG NSC 05/04 Q1011 BECMG 0600 FG
Getting current METAR information for ESSA 010120Z 07005KT 9999 FEW016 BKN021 10/10 Q1019 TEMPO 3000 BR BKN005

Schedule Frequency

Route Map